Time;durP1;ratioP1;P1;durP2;ratioP2;P2;SDS_P1;SDS_P2;PMS_P1;PMS_P2;Temp;Humidity;BMP_temperature;BMP_pressure;BME280_temperature;BME280_humidity;BME280_pressure;Samples;Min_cycle;Max_cycle;Signal;HPM_P1;HPM_P2
2022/02/01 00:00:41;;;;;;;5.40;2.03;;;17.80;96.00;;;;;;4163968;28;20598;-79
2022/02/01 00:02:47;;;;;;;6.05;2.67;;;17.80;96.00;;;;;;4159572;28;20322;-79
2022/02/01 00:04:59;;;;;;;6.32;2.35;;;17.80;95.90;;;;;;4165962;28;20269;-78
2022/02/01 00:07:10;;;;;;;6.68;2.67;;;17.80;96.10;;;;;;4166867;28;20290;-78
2022/02/01 00:09:22;;;;;;;5.78;2.38;;;17.80;96.00;;;;;;4166517;28;20212;-79
2022/02/01 00:11:35;;;;;;;5.13;2.25;;;17.80;95.90;;;;;;4165829;28;20285;-79
2022/02/01 00:13:45;;;;;;;6.72;2.22;;;17.80;96.30;;;;;;4165149;28;20247;-79
2022/02/01 00:20:51;;;;;;;4.70;2.08;;;17.80;95.80;;;;;;4148427;28;20220;-78
2022/02/01 00:34:52;;;;;;;4.97;2.00;;;17.80;95.90;;;;;;4168016;28;20201;-79
2022/02/01 00:36:59;;;;;;;6.43;2.20;;;17.70;95.80;;;;;;4166347;28;20265;-79
2022/02/01 00:39:04;;;;;;;6.03;2.10;;;17.70;96.00;;;;;;4158284;28;20274;-79
2022/02/01 00:41:08;;;;;;;5.57;2.22;;;17.70;95.90;;;;;;4162436;28;20266;-78
2022/02/01 00:43:12;;;;;;;6.05;2.20;;;17.70;96.00;;;;;;4163612;28;20224;-79
2022/02/01 00:45:14;;;;;;;5.97;2.15;;;17.70;96.00;;;;;;4165493;28;20239;-79
2022/02/01 00:47:17;;;;;;;5.75;2.30;;;17.70;96.00;;;;;;4164609;28;20708;-79
2022/02/01 00:49:19;;;;;;;7.40;2.45;;;17.70;96.10;;;;;;4165453;28;20209;-79
2022/02/01 00:51:22;;;;;;;5.03;2.22;;;17.70;96.00;;;;;;4166256;28;20278;-79
2022/02/01 00:53:29;;;;;;;4.85;2.00;;;17.70;96.10;;;;;;4166627;28;20584;-79
2022/02/01 00:55:31;;;;;;;3.90;1.80;;;17.70;96.00;;;;;;4166340;28;20738;-79
2022/02/01 00:57:34;;;;;;;5.80;2.03;;;17.60;96.00;;;;;;4165639;28;21013;-78
2022/02/01 00:59:37;;;;;;;4.45;2.00;;;17.70;96.00;;;;;;4163044;28;20208;-79
2022/02/01 01:01:40;;;;;;;4.78;1.95;;;17.70;96.00;;;;;;4164258;28;20220;-78
2022/02/01 01:03:44;;;;;;;8.20;2.88;;;17.60;96.00;;;;;;4165867;28;20207;-78
2022/02/01 01:05:47;;;;;;;5.80;1.80;;;17.60;96.00;;;;;;4161505;28;20562;-79
2022/02/01 01:07:49;;;;;;;6.13;2.38;;;17.60;96.00;;;;;;4162895;28;20212;-79
2022/02/01 01:09:52;;;;;;;4.88;1.95;;;17.60;96.00;;;;;;4162319;28;20259;-79
2022/02/01 01:11:57;;;;;;;6.82;2.17;;;17.60;96.10;;;;;;4162667;28;20212;-79
2022/02/01 01:16:34;;;;;;;5.28;2.05;;;17.60;96.10;;;;;;4160059;28;20204;-79
2022/02/01 01:19:04;;;;;;;5.53;1.95;;;17.60;96.20;;;;;;4162391;28;20742;-79
2022/02/01 01:44:36;;;;;;;6.10;2.13;;;17.50;95.90;;;;;;4163094;28;20196;-78
2022/02/01 01:53:39;;;;;;;7.28;2.20;;;17.50;95.90;;;;;;4165849;28;20196;-79
2022/02/01 01:55:45;;;;;;;4.25;1.80;;;17.60;95.90;;;;;;4164557;28;20217;-79
2022/02/01 01:57:47;;;;;;;5.05;2.50;;;17.50;96.00;;;;;;4165649;28;20650;-79
2022/02/01 01:59:49;;;;;;;3.78;2.00;;;17.50;95.90;;;;;;4165058;28;20283;-79
2022/02/01 02:01:52;;;;;;;5.97;2.15;;;17.50;95.90;;;;;;4167037;28;20635;-78
2022/02/01 02:03:55;;;;;;;4.43;2.20;;;17.50;95.90;;;;;;4165083;28;20266;-78
2022/02/01 02:05:58;;;;;;;5.40;2.40;;;17.50;95.80;;;;;;4165060;28;20716;-79
2022/02/01 02:08:01;;;;;;;5.03;2.10;;;17.50;95.90;;;;;;4164719;28;20262;-79
2022/02/01 02:10:04;;;;;;;4.30;1.95;;;17.50;95.70;;;;;;4161895;28;20271;-79
2022/02/01 02:12:17;;;;;;;5.63;1.75;;;17.50;95.80;;;;;;4163848;28;20263;-78
2022/02/01 02:14:20;;;;;;;4.32;2.03;;;17.50;95.90;;;;;;4163701;28;20228;-74
2022/02/01 02:16:22;;;;;;;4.68;2.00;;;17.50;95.80;;;;;;4163664;28;20212;-74
2022/02/01 02:18:25;;;;;;;4.03;1.90;;;17.50;95.80;;;;;;4165044;28;20220;-74
2022/02/01 02:20:39;;;;;;;5.88;2.25;;;17.50;95.70;;;;;;4164761;28;20216;-74
2022/02/01 02:22:43;;;;;;;4.30;1.67;;;17.50;95.70;;;;;;4163328;28;20216;-74
2022/02/01 02:24:45;;;;;;;4.80;1.90;;;17.50;95.70;;;;;;4163330;28;20275;-74
2022/02/01 02:26:49;;;;;;;7.28;2.42;;;17.50;95.70;;;;;;4163825;28;20983;-74
2022/02/01 02:28:51;;;;;;;5.47;2.10;;;17.50;95.70;;;;;;4164262;28;20219;-74
2022/02/01 02:30:54;;;;;;;5.60;2.35;;;17.40;95.70;;;;;;4161295;28;22092;-74
2022/02/01 02:33:01;;;;;;;4.30;1.80;;;17.40;95.80;;;;;;4163473;28;20221;-74
2022/02/01 02:35:04;;;;;;;6.13;2.17;;;17.40;95.70;;;;;;4164211;28;20215;-78
2022/02/01 02:37:14;;;;;;;6.10;2.00;;;17.50;95.70;;;;;;4165165;28;20701;-79
2022/02/01 02:39:30;;;;;;;6.03;2.28;;;17.40;95.60;;;;;;4159376;28;20240;-79
2022/02/01 02:41:35;;;;;;;4.28;1.88;;;17.50;95.60;;;;;;4163423;28;20219;-79
2022/02/01 02:45:57;;;;;;;3.75;1.80;;;17.40;95.60;;;;;;4165322;28;20204;-79
2022/02/01 02:47:59;;;;;;;4.20;2.10;;;17.40;95.60;;;;;;4164314;28;20255;-78
2022/02/01 02:50:02;;;;;;;5.57;2.00;;;17.40;95.60;;;;;;4164388;28;20255;-79
2022/02/01 02:52:05;;;;;;;2.75;1.65;;;17.40;95.60;;;;;;4165256;28;20262;-80
2022/02/01 02:54:09;;;;;;;5.13;1.98;;;17.40;95.50;;;;;;4166259;28;20627;-79
2022/02/01 02:56:12;;;;;;;4.03;1.80;;;17.40;95.60;;;;;;4163421;28;21563;-79
2022/02/01 02:58:15;;;;;;;5.75;2.50;;;17.40;95.50;;;;;;4165573;28;20265;-79
2022/02/01 03:00:17;;;;;;;5.85;1.90;;;17.40;95.50;;;;;;4164073;28;20647;-79
2022/02/01 03:02:20;;;;;;;4.20;1.73;;;17.40;95.40;;;;;;4163797;28;20259;-79
2022/02/01 03:04:24;;;;;;;5.63;2.05;;;17.40;95.80;;;;;;4162168;28;20216;-79
2022/02/01 03:06:26;;;;;;;5.93;2.30;;;17.40;95.50;;;;;;4164225;28;20263;-79
2022/02/01 03:08:29;;;;;;;6.43;2.35;;;17.30;95.40;;;;;;4164385;28;20282;-78
2022/02/01 03:10:31;;;;;;;6.70;2.42;;;17.40;95.40;;;;;;4163228;28;20214;-79
2022/02/01 03:12:56;;;;;;;7.55;2.15;;;17.30;95.40;;;;;;4163660;28;20216;-79
2022/02/01 03:15:19;;;;;;;4.53;2.28;;;17.30;95.40;;;;;;4163941;28;20605;-79
2022/02/01 03:17:27;;;;;;;5.80;2.03;;;17.40;95.40;;;;;;4162268;28;20739;-78
2022/02/01 03:19:49;;;;;;;7.93;2.53;;;17.40;95.40;;;;;;4165632;28;20313;-79
2022/02/01 03:21:51;;;;;;;7.32;2.10;;;17.40;95.40;;;;;;4161889;28;20259;-79
2022/02/01 03:23:54;;;;;;;6.38;2.40;;;17.30;95.30;;;;;;4165409;28;20665;-79
2022/02/01 03:25:56;;;;;;;4.25;1.88;;;17.40;95.30;;;;;;4162191;28;20216;-79
2022/02/01 03:28:00;;;;;;;5.07;1.63;;;17.40;95.40;;;;;;4164517;28;20217;-79
2022/02/01 03:30:02;;;;;;;4.95;2.15;;;17.30;95.40;;;;;;4154756;28;20235;-79
2022/02/01 03:32:05;;;;;;;4.95;1.63;;;17.30;95.80;;;;;;4164020;28;20213;-74
2022/02/01 03:34:08;;;;;;;6.47;2.40;;;17.30;95.30;;;;;;4162939;28;20216;-74
2022/02/01 03:36:10;;;;;;;6.47;2.30;;;17.30;95.30;;;;;;4162600;28;20216;-74
2022/02/01 03:38:12;;;;;;;4.85;2.03;;;17.30;95.20;;;;;;4156642;28;20323;-74
2022/02/01 03:40:17;;;;;;;5.78;1.75;;;17.30;95.30;;;;;;4162291;28;20271;-74
2022/02/01 03:42:21;;;;;;;4.60;1.92;;;17.30;95.30;;;;;;4162213;28;20208;-74
2022/02/01 03:44:24;;;;;;;4.10;1.60;;;17.30;95.20;;;;;;4162096;28;20216;-74
2022/02/01 03:46:27;;;;;;;5.47;2.15;;;17.30;95.20;;;;;;4163209;28;20224;-79
2022/02/01 03:48:29;;;;;;;6.45;2.38;;;17.30;95.30;;;;;;4163922;28;20220;-79
2022/02/01 03:50:32;;;;;;;6.63;2.30;;;17.30;95.30;;;;;;4163833;28;20247;-79
2022/02/01 03:52:35;;;;;;;5.25;2.17;;;17.30;95.30;;;;;;4163538;28;20282;-79
2022/02/01 03:54:37;;;;;;;6.18;2.03;;;17.30;95.30;;;;;;4160804;28;20213;-79
2022/02/01 03:56:40;;;;;;;5.43;2.53;;;17.30;95.30;;;;;;4162951;28;20213;-79
2022/02/01 03:58:42;;;;;;;5.10;2.30;;;17.30;95.30;;;;;;4161352;28;20721;-79
2022/02/01 04:00:46;;;;;;;4.60;2.20;;;17.30;95.20;;;;;;4164332;28;20704;-78
2022/02/01 04:02:48;;;;;;;4.78;2.05;;;17.30;95.30;;;;;;4163927;28;20270;-78
2022/02/01 04:04:53;;;;;;;8.55;2.53;;;17.30;95.20;;;;;;4163830;28;20209;-78
2022/02/01 04:06:56;;;;;;;6.95;2.25;;;17.20;95.20;;;;;;4162804;28;20216;-79
2022/02/01 04:08:58;;;;;;;4.13;2.15;;;17.20;95.20;;;;;;4161326;28;20263;-79
2022/02/01 04:11:00;;;;;;;5.55;2.33;;;17.30;95.20;;;;;;4165434;28;20634;-78
2022/02/01 04:13:04;;;;;;;3.95;1.73;;;17.30;95.20;;;;;;4160615;28;20224;-79
2022/02/01 04:15:08;;;;;;;5.10;1.90;;;17.20;95.20;;;;;;4164029;28;20216;-79
2022/02/01 04:17:12;;;;;;;6.50;2.35;;;17.20;95.20;;;;;;4162453;28;20243;-79
2022/02/01 04:19:14;;;;;;;7.20;2.17;;;17.20;95.30;;;;;;4164464;28;20220;-79
2022/02/01 04:21:17;;;;;;;5.93;2.22;;;17.20;95.20;;;;;;4164520;28;20224;-78
2022/02/01 04:23:19;;;;;;;7.25;2.17;;;17.20;95.20;;;;;;4163998;28;20665;-79
2022/02/01 04:25:21;;;;;;;5.10;2.13;;;17.20;95.20;;;;;;4162499;28;20270;-78
2022/02/01 04:27:30;;;;;;;5.40;1.88;;;17.20;95.30;;;;;;4160331;28;20212;-79
2022/02/01 04:29:34;;;;;;;4.95;2.22;;;17.20;95.30;;;;;;4156969;28;20274;-79
2022/02/01 04:31:36;;;;;;;6.32;2.08;;;17.20;95.30;;;;;;4162893;28;20208;-77
2022/02/01 04:33:40;;;;;;;6.95;2.38;;;17.20;95.30;;;;;;4162719;28;20216;-78
2022/02/01 04:35:42;;;;;;;4.18;1.98;;;17.20;95.30;;;;;;4162746;28;20209;-79
2022/02/01 04:37:45;;;;;;;6.10;2.13;;;17.20;95.30;;;;;;4162557;28;20228;-79
2022/02/01 04:39:48;;;;;;;5.32;2.25;;;17.20;95.30;;;;;;4163477;28;20290;-79
2022/02/01 04:41:50;;;;;;;5.55;2.20;;;17.20;95.20;;;;;;4164190;28;20806;-79
2022/02/01 04:43:53;;;;;;;4.63;1.95;;;17.20;95.20;;;;;;4163883;28;21613;-79
2022/02/01 04:45:55;;;;;;;5.72;2.30;;;17.10;95.30;;;;;;4161015;28;20270;-79
2022/02/01 04:47:57;;;;;;;6.13;2.10;;;17.20;95.30;;;;;;4162697;28;20205;-79
2022/02/01 04:50:02;;;;;;;6.80;2.67;;;17.20;95.40;;;;;;4164143;28;20251;-78
2022/02/01 04:52:05;;;;;;;3.97;2.10;;;17.20;95.40;;;;;;4162682;28;20271;-79
2022/02/01 04:54:08;;;;;;;6.28;2.08;;;17.20;95.40;;;;;;4163694;28;20549;-79
2022/02/01 04:56:10;;;;;;;5.20;2.20;;;17.20;95.40;;;;;;4162668;28;20247;-79
2022/02/01 04:58:13;;;;;;;5.82;2.13;;;17.20;95.20;;;;;;4163459;28;20270;-79
2022/02/01 05:00:15;;;;;;;6.03;2.25;;;17.20;95.20;;;;;;4166445;28;20264;-78
2022/02/01 05:02:18;;;;;;;7.15;2.78;;;17.20;95.40;;;;;;4162927;28;20221;-79
2022/02/01 05:04:20;;;;;;;4.63;2.22;;;17.10;95.30;;;;;;4161533;28;20213;-74
2022/02/01 05:06:25;;;;;;;5.05;2.38;;;17.20;95.40;;;;;;4161198;28;20875;-74
2022/02/01 05:08:28;;;;;;;4.70;2.10;;;17.10;95.20;;;;;;4161315;28;20628;-74
2022/02/01 05:10:33;;;;;;;5.75;2.33;;;17.10;95.30;;;;;;4161086;28;20266;-74
2022/02/01 05:12:37;;;;;;;5.30;2.25;;;17.10;95.30;;;;;;4160520;28;20278;-74
2022/02/01 05:14:40;;;;;;;5.10;2.50;;;17.10;95.30;;;;;;4161175;28;20549;-74
2022/02/01 05:16:46;;;;;;;4.75;2.10;;;17.10;95.20;;;;;;4161188;28;20606;-74
2022/02/01 05:19:00;;;;;;;5.50;2.13;;;17.10;95.30;;;;;;4161135;28;20247;-74
2022/02/01 05:21:06;;;;;;;4.97;2.28;;;17.10;95.40;;;;;;4162176;28;20285;-74
2022/02/01 05:23:10;;;;;;;5.22;1.92;;;17.10;95.30;;;;;;4164922;28;20661;-74
2022/02/01 05:25:13;;;;;;;6.18;2.17;;;17.10;95.60;;;;;;4164903;28;20247;-74
2022/02/01 05:27:16;;;;;;;3.90;1.85;;;17.10;95.50;;;;;;4162234;28;20216;-74
2022/02/01 05:29:19;;;;;;;5.47;2.30;;;17.10;95.40;;;;;;4164466;28;20209;-74
2022/02/01 05:31:23;;;;;;;5.47;2.08;;;17.10;95.40;;;;;;4164669;28;20290;-74
2022/02/01 05:33:25;;;;;;;6.03;2.03;;;17.10;95.40;;;;;;4164996;28;20212;-74
2022/02/01 05:35:31;;;;;;;5.55;2.33;;;17.10;95.40;;;;;;4164656;28;20239;-73
2022/02/01 05:37:33;;;;;;;5.43;2.38;;;17.10;95.40;;;;;;4161942;28;20266;-74
2022/02/01 05:39:38;;;;;;;5.72;2.45;;;17.10;95.40;;;;;;4164855;28;20220;-74
2022/02/01 05:41:41;;;;;;;5.57;2.35;;;17.10;95.50;;;;;;4163716;28;20227;-74
2022/02/01 05:43:43;;;;;;;7.45;2.42;;;17.10;95.40;;;;;;4164308;28;20201;-74
2022/02/01 05:45:46;;;;;;;5.72;2.28;;;17.00;95.40;;;;;;4160976;28;20213;-73
2022/02/01 05:47:48;;;;;;;4.50;1.90;;;17.00;95.50;;;;;;4163987;28;20251;-78
2022/02/01 05:49:51;;;;;;;5.80;2.30;;;17.10;95.50;;;;;;4164499;28;20607;-74
2022/02/01 05:51:53;;;;;;;4.32;2.00;;;17.00;95.50;;;;;;4164224;28;20209;-74
2022/02/01 05:53:55;;;;;;;6.35;2.50;;;17.00;95.60;;;;;;4162327;28;20279;-74
2022/02/01 05:55:59;;;;;;;5.95;2.70;;;16.70;95.90;;;;;;4164098;28;20551;-74
2022/02/01 05:58:02;;;;;;;4.82;2.33;;;16.70;96.10;;;;;;4164777;28;20528;-74
2022/02/01 06:00:05;;;;;;;4.95;2.20;;;16.70;96.00;;;;;;4146964;28;20745;-75
2022/02/01 06:02:08;;;;;;;5.97;2.30;;;16.80;96.00;;;;;;4163780;28;20232;-73
2022/02/01 06:04:10;;;;;;;5.35;2.15;;;17.00;95.90;;;;;;4163992;28;20216;-74
2022/02/01 06:06:12;;;;;;;5.05;2.30;;;17.00;95.90;;;;;;4164235;28;20208;-74
2022/02/01 06:08:15;;;;;;;5.70;2.28;;;17.00;96.20;;;;;;4157608;28;20264;-74
2022/02/01 06:10:17;;;;;;;6.05;2.50;;;17.10;96.40;;;;;;4163493;28;20213;-74
2022/02/01 06:12:21;;;;;;;5.10;2.47;;;17.20;96.60;;;;;;4161580;28;20738;-74
2022/02/01 06:14:23;;;;;;;5.70;2.47;;;17.20;96.70;;;;;;4163124;28;20220;-73
2022/02/01 06:16:25;;;;;;;4.82;2.00;;;17.20;96.70;;;;;;4161041;28;20274;-74
2022/02/01 06:18:28;;;;;;;5.05;2.40;;;17.20;97.40;;;;;;4165468;28;20224;-74
2022/02/01 06:20:30;;;;;;;4.28;2.15;;;17.20;97.60;;;;;;4163892;28;20228;-74
2022/02/01 06:22:33;;;;;;;7.50;2.47;;;17.20;97.70;;;;;;4163513;28;20242;-74
2022/02/01 06:24:37;;;;;;;4.00;2.10;;;17.20;97.90;;;;;;4163962;28;20604;-74
2022/02/01 06:26:39;;;;;;;6.75;2.72;;;17.20;98.00;;;;;;4164551;28;20225;-74
2022/02/01 06:28:44;;;;;;;6.00;2.53;;;17.20;98.00;;;;;;4163354;28;20220;-74
2022/02/01 06:30:49;;;;;;;3.75;1.85;;;17.20;98.20;;;;;;4163777;28;20212;-73
2022/02/01 06:32:51;;;;;;;4.72;2.30;;;17.20;98.20;;;;;;4163804;28;20259;-74
2022/02/01 06:34:53;;;;;;;3.90;2.20;;;17.20;98.40;;;;;;4164468;28;20212;-74
2022/02/01 06:36:56;;;;;;;4.20;2.10;;;17.20;98.60;;;;;;4163983;28;20689;-74
2022/02/01 06:38:58;;;;;;;4.90;2.15;;;17.20;98.60;;;;;;4163209;28;20217;-74
2022/02/01 06:41:01;;;;;;;4.10;2.03;;;17.20;98.70;;;;;;4164868;28;20257;-74
2022/02/01 06:43:03;;;;;;;5.25;2.28;;;17.30;98.70;;;;;;4163330;28;20735;-74
2022/02/01 06:45:08;;;;;;;4.03;2.17;;;17.30;98.80;;;;;;4162062;28;20224;-74
2022/02/01 06:47:11;;;;;;;3.78;2.10;;;17.30;98.90;;;;;;4163907;28;20216;-73
2022/02/01 06:49:13;;;;;;;5.03;2.10;;;17.30;99.10;;;;;;4163236;28;20610;-74
2022/02/01 06:51:18;;;;;;;4.38;2.20;;;17.30;99.00;;;;;;4163279;28;20217;-74
2022/02/01 06:53:22;;;;;;;5.60;2.65;;;17.30;99.00;;;;;;4164118;28;20271;-74
2022/02/01 06:55:34;;;;;;;4.57;2.00;;;17.30;99.00;;;;;;4162555;28;20544;-74
2022/02/01 06:57:37;;;;;;;3.90;1.90;;;17.40;99.20;;;;;;4164249;28;20220;-74
2022/02/01 06:59:40;;;;;;;4.47;2.20;;;17.40;99.20;;;;;;4164059;28;20217;-74
2022/02/01 07:01:44;;;;;;;5.00;2.20;;;17.40;99.20;;;;;;4161231;28;20345;-74
2022/02/01 07:03:46;;;;;;;4.30;1.95;;;17.40;99.20;;;;;;4164926;28;20212;-74
2022/02/01 07:05:49;;;;;;;6.22;2.40;;;17.40;99.30;;;;;;4162948;28;20239;-74
2022/02/01 07:07:51;;;;;;;5.45;2.22;;;17.40;99.30;;;;;;4164262;28;20262;-74
2022/02/01 07:09:53;;;;;;;5.15;2.15;;;17.40;99.40;;;;;;4164352;28;20266;-74
2022/02/01 07:11:56;;;;;;;4.15;1.85;;;17.40;99.40;;;;;;4162883;28;20209;-74
2022/02/01 07:13:58;;;;;;;5.10;2.42;;;17.40;99.40;;;;;;4162824;28;20212;-74
2022/02/01 07:16:01;;;;;;;7.13;2.20;;;17.50;99.40;;;;;;4162592;28;20209;-74
2022/02/01 07:18:04;;;;;;;4.40;1.98;;;17.50;99.40;;;;;;4163030;28;20610;-74
2022/02/01 07:20:08;;;;;;;4.32;1.90;;;17.50;99.50;;;;;;4163809;28;20220;-74
2022/02/01 07:22:11;;;;;;;3.50;2.05;;;17.50;99.60;;;;;;4164874;28;20236;-74
2022/02/01 07:24:16;;;;;;;3.22;1.67;;;17.50;99.60;;;;;;4164151;28;20266;-74
2022/02/01 07:26:20;;;;;;;4.32;1.95;;;17.50;99.70;;;;;;4162720;28;20217;-74
2022/02/01 07:28:25;;;;;;;3.53;1.98;;;17.60;99.60;;;;;;4162696;28;20209;-74
2022/02/01 07:30:28;;;;;;;3.33;1.73;;;17.50;99.70;;;;;;4162691;28;20232;-74
2022/02/01 07:32:30;;;;;;;4.45;2.13;;;17.60;99.80;;;;;;4162306;28;20216;-74
2022/02/01 07:34:34;;;;;;;4.00;1.90;;;17.60;99.70;;;;;;4157087;28;20287;-76
2022/02/01 07:36:36;;;;;;;3.42;1.95;;;17.60;99.90;;;;;;4160868;28;20720;-73
2022/02/01 07:38:38;;;;;;;2.72;1.63;;;17.60;99.90;;;;;;4162996;28;20262;-73
2022/02/01 07:40:41;;;;;;;4.20;1.67;;;17.60;99.90;;;;;;4164300;28;20233;-74
2022/02/01 07:42:43;;;;;;;2.83;1.70;;;17.60;99.90;;;;;;4161527;28;20232;-73
2022/02/01 07:44:45;;;;;;;3.28;1.88;;;17.70;99.90;;;;;;4163818;28;20217;-76
2022/02/01 07:46:49;;;;;;;4.57;2.00;;;17.70;99.90;;;;;;4160772;28;20224;-76
2022/02/01 07:48:52;;;;;;;3.75;1.65;;;17.70;99.80;;;;;;4157782;28;20304;-76
2022/02/01 07:50:55;;;;;;;6.10;2.10;;;17.70;99.00;;;;;;4157200;28;20213;-74
2022/02/01 07:52:58;;;;;;;5.93;2.33;;;17.80;99.50;;;;;;4155681;28;20252;-73
2022/02/01 07:55:00;;;;;;;5.55;2.35;;;17.80;99.30;;;;;;4156529;28;20314;-74
2022/02/01 07:57:03;;;;;;;5.85;2.17;;;17.90;98.90;;;;;;4155373;28;20235;-75
2022/02/01 07:59:06;;;;;;;5.22;2.05;;;18.10;99.90;;;;;;4161237;28;20221;-74
2022/02/01 08:01:08;;;;;;;2.67;1.70;;;18.20;99.20;;;;;;4153888;28;20283;-75
2022/02/01 08:03:12;;;;;;;4.78;2.00;;;18.30;98.50;;;;;;4160085;28;20298;-74
2022/02/01 08:05:14;;;;;;;4.20;1.85;;;18.50;98.90;;;;;;4160170;28;20282;-73
2022/02/01 08:07:19;;;;;;;4.05;1.88;;;18.60;99.00;;;;;;4157962;28;20217;-74
2022/02/01 08:09:26;;;;;;;5.22;2.20;;;18.70;99.00;;;;;;4163061;28;20224;-75
2022/02/01 08:11:28;;;;;;;3.95;2.10;;;18.80;99.00;;;;;;4162721;28;20254;-75
2022/02/01 08:18:26;;;;;;;4.45;2.20;;;18.80;99.00;;;;;;4162571;28;20716;-75
2022/02/01 08:20:32;;;;;;;4.35;1.95;;;18.90;99.10;;;;;;4162545;28;20290;-74
2022/02/01 08:22:39;;;;;;;7.65;2.05;;;18.90;98.60;;;;;;4163998;28;20247;-73
2022/02/01 08:24:41;;;;;;;8.60;2.08;;;19.10;98.50;;;;;;4157222;28;20219;-77
2022/02/01 08:26:43;;;;;;;5.85;2.00;;;19.10;98.20;;;;;;4154359;28;20197;-83
2022/02/01 08:28:46;;;;;;;2.42;1.67;;;19.10;98.30;;;;;;4155968;28;20213;-80
2022/02/01 08:30:50;;;;;;;3.45;1.63;;;19.20;98.90;;;;;;4160459;28;21061;-86
2022/02/01 08:32:53;;;;;;;5.20;2.10;;;19.20;98.50;;;;;;4159716;28;20278;-85
2022/02/01 08:34:55;;;;;;;4.20;1.88;;;19.30;98.70;;;;;;4163788;28;20263;-83
2022/02/01 08:36:57;;;;;;;3.70;1.67;;;19.30;98.60;;;;;;4159404;28;20240;-81
2022/02/01 08:39:01;;;;;;;3.53;1.75;;;19.30;98.80;;;;;;4159124;28;20227;-80
2022/02/01 08:41:03;;;;;;;2.53;1.70;;;19.40;98.60;;;;;;4161982;28;20212;-81
2022/02/01 08:43:06;;;;;;;3.47;1.80;;;19.40;98.80;;;;;;4157392;28;20291;-81
2022/02/01 08:45:09;;;;;;;4.10;1.75;;;19.50;98.70;;;;;;4160051;28;20657;-82
2022/02/01 08:47:13;;;;;;;4.10;1.90;;;19.50;98.80;;;;;;4161011;28;20661;-80
2022/02/01 08:49:15;;;;;;;5.85;1.85;;;19.60;98.70;;;;;;4163355;28;20211;-80
2022/02/01 08:51:19;;;;;;;4.18;2.13;;;19.60;98.70;;;;;;4165431;28;20870;-81
2022/02/01 08:53:24;;;;;;;3.95;2.10;;;19.60;98.70;;;;;;4162822;28;20207;-79
2022/02/01 08:55:37;;;;;;;2.92;1.58;;;19.60;98.70;;;;;;4161266;28;20270;-79
2022/02/01 08:57:39;;;;;;;4.75;2.05;;;19.60;98.70;;;;;;4159878;28;20273;-80
2022/02/01 08:59:46;;;;;;;3.10;1.70;;;19.60;98.80;;;;;;4164676;28;20228;-77
2022/02/01 09:01:49;;;;;;;2.92;1.60;;;19.70;98.80;;;;;;4161894;28;20204;-76
2022/02/01 09:03:52;;;;;;;2.83;1.73;;;19.70;98.80;;;;;;4158858;28;20221;-75
2022/02/01 09:05:54;;;;;;;3.58;1.73;;;19.70;99.00;;;;;;4151882;28;20845;-74
2022/02/01 09:07:58;;;;;;;4.78;1.80;;;19.80;99.00;;;;;;4159704;28;20274;-75
2022/02/01 09:10:00;;;;;;;3.10;1.60;;;19.80;99.10;;;;;;4160147;28;20993;-74
2022/02/01 09:12:05;;;;;;;2.03;1.33;;;19.90;98.90;;;;;;4156407;28;20242;-75
2022/02/01 09:14:07;;;;;;;3.83;1.85;;;19.90;99.00;;;;;;4157184;28;20262;-75
2022/02/01 09:16:10;;;;;;;5.00;1.90;;;20.00;99.00;;;;;;4161095;28;20262;-75
2022/02/01 09:18:16;;;;;;;3.35;1.65;;;20.00;99.00;;;;;;4155586;28;20212;-75
2022/02/01 09:20:19;;;;;;;5.05;2.38;;;20.00;99.10;;;;;;4160120;28;20212;-76
2022/02/01 09:22:21;;;;;;;3.47;1.73;;;20.00;99.00;;;;;;4160310;28;20385;-75
2022/02/01 09:24:24;;;;;;;2.90;2.00;;;20.00;99.00;;;;;;4160319;28;20217;-75
2022/02/01 09:26:26;;;;;;;2.70;1.70;;;20.00;99.10;;;;;;4158165;28;20267;-75
2022/02/01 09:28:30;;;;;;;4.45;1.95;;;20.00;99.10;;;;;;4158912;28;20216;-73
2022/02/01 09:30:33;;;;;;;2.92;1.63;;;20.10;99.10;;;;;;4163469;28;20249;-75
2022/02/01 09:32:36;;;;;;;3.42;1.67;;;20.10;99.10;;;;;;4161014;28;20213;-71
2022/02/01 09:34:38;;;;;;;2.63;1.63;;;20.10;99.20;;;;;;4156352;28;20227;-72
2022/02/01 09:36:42;;;;;;;3.13;1.65;;;20.10;99.20;;;;;;4157320;28;20655;-74
2022/02/01 09:38:45;;;;;;;3.42;2.00;;;20.20;99.30;;;;;;4159749;28;20212;-74
2022/02/01 09:40:48;;;;;;;3.83;1.90;;;20.10;99.30;;;;;;4157976;28;20266;-73
2022/02/01 09:42:50;;;;;;;3.50;1.63;;;20.20;99.10;;;;;;4161711;28;20244;-73
2022/02/01 09:44:54;;;;;;;8.90;2.22;;;20.20;99.20;;;;;;4160147;28;20220;-76
2022/02/01 09:46:57;;;;;;;4.82;1.80;;;20.20;99.10;;;;;;4158391;28;20654;-76
2022/02/01 09:48:59;;;;;;;3.47;1.70;;;20.20;99.10;;;;;;4159549;28;20231;-78
2022/02/01 09:51:08;;;;;;;3.85;1.75;;;20.40;99.20;;;;;;4159473;28;20217;-79
2022/02/01 09:53:13;;;;;;;3.47;1.75;;;20.30;99.80;;;;;;4158664;28;20224;-79
2022/02/01 09:55:23;;;;;;;3.53;1.70;;;20.30;99.60;;;;;;4162967;28;20196;-78
2022/02/01 09:57:42;;;;;;;4.50;1.73;;;20.30;99.90;;;;;;4158760;28;20208;-80
2022/02/01 10:00:17;;;;;;;2.97;1.77;;;20.20;99.90;;;;;;4159307;28;20205;-80
2022/02/01 10:02:40;;;;;;;4.72;1.90;;;20.30;99.80;;;;;;4133996;28;20640;-77
2022/02/01 10:04:43;;;;;;;2.88;1.90;;;20.30;99.40;;;;;;4158969;28;21169;-74
2022/02/01 10:06:47;;;;;;;7.75;2.25;;;20.40;99.60;;;;;;4156878;28;20270;-77
2022/02/01 10:08:49;;;;;;;4.72;1.70;;;20.40;99.50;;;;;;4160626;28;20213;-78
2022/02/01 10:10:55;;;;;;;4.03;1.90;;;20.40;99.50;;;;;;4162208;28;20212;-76
2022/02/01 10:13:03;;;;;;;5.25;2.05;;;20.30;99.50;;;;;;4164758;28;20200;-77
2022/02/01 10:15:09;;;;;;;3.40;1.85;;;20.30;99.60;;;;;;4160172;28;20220;-75
2022/02/01 10:17:12;;;;;;;5.47;1.88;;;20.20;99.80;;;;;;4163525;28;20289;-77
2022/02/01 10:19:17;;;;;;;3.50;1.65;;;20.40;99.90;;;;;;4162603;28;20216;-78
2022/02/01 10:21:19;;;;;;;3.75;1.73;;;20.50;99.70;;;;;;4165538;28;20357;-77
2022/02/01 10:23:25;;;;;;;3.78;1.80;;;20.40;99.80;;;;;;4160933;28;20293;-78
2022/02/01 10:25:29;;;;;;;5.55;2.40;;;20.50;99.90;;;;;;4167809;28;20219;-77
2022/02/01 10:27:34;;;;;;;3.22;1.80;;;20.40;99.80;;;;;;4163119;28;20290;-78
2022/02/01 10:29:38;;;;;;;2.53;1.42;;;20.40;99.90;;;;;;4165378;28;20731;-79
2022/02/01 10:31:45;;;;;;;3.55;2.08;;;20.50;99.90;;;;;;4160471;28;20208;-78
2022/02/01 10:34:03;;;;;;;2.03;1.45;;;20.50;99.60;;;;;;4161012;28;20258;-78
2022/02/01 10:36:09;;;;;;;7.50;1.65;;;20.60;99.70;;;;;;4164256;28;20267;-78
2022/02/01 10:38:12;;;;;;;4.03;1.95;;;20.70;99.70;;;;;;4161836;28;20217;-76
2022/02/01 10:40:14;;;;;;;2.83;1.63;;;20.70;99.70;;;;;;4166236;28;20826;-75
2022/02/01 10:42:17;;;;;;;5.07;1.88;;;20.60;99.70;;;;;;4164229;28;20624;-77
2022/02/01 10:44:22;;;;;;;6.60;1.80;;;20.60;99.90;;;;;;4164891;28;20236;-78
2022/02/01 10:46:25;;;;;;;3.60;1.63;;;20.70;99.90;;;;;;4165712;28;20274;-77
2022/02/01 10:48:29;;;;;;;4.32;1.85;;;20.70;99.90;;;;;;4159818;28;20263;-78
2022/02/01 10:50:32;;;;;;;3.78;1.60;;;20.70;99.90;;;;;;4163957;28;20228;-77
2022/02/01 10:52:39;;;;;;;4.80;2.10;;;20.70;99.90;;;;;;4159409;28;20220;-80
2022/02/01 10:54:43;;;;;;;2.35;1.50;;;20.80;99.90;;;;;;4161114;28;20303;-77
2022/02/01 10:56:46;;;;;;;5.25;1.80;;;20.80;99.90;;;;;;4156250;28;20316;-76
2022/02/01 10:58:50;;;;;;;6.57;1.90;;;20.80;99.90;;;;;;4158855;28;20261;-76
2022/02/01 11:00:53;;;;;;;4.85;1.85;;;20.90;99.90;;;;;;4160462;28;20270;-78
2022/02/01 11:02:56;;;;;;;5.18;1.90;;;20.80;99.90;;;;;;4165976;28;21122;-76
2022/02/01 11:05:02;;;;;;;2.72;1.50;;;20.70;99.90;;;;;;4164409;28;20219;-77
2022/02/01 11:07:05;;;;;;;2.60;1.70;;;20.80;99.90;;;;;;4159458;28;20258;-78
2022/02/01 11:09:09;;;;;;;2.45;1.40;;;20.80;99.90;;;;;;4161392;28;20744;-78
2022/02/01 11:11:17;;;;;;;4.25;1.70;;;20.80;99.90;;;;;;4159932;28;20227;-80
2022/02/01 11:13:19;;;;;;;3.30;1.67;;;20.90;99.90;;;;;;4159866;28;20220;-78
2022/02/01 11:15:24;;;;;;;3.70;1.88;;;20.90;99.90;;;;;;4158137;28;20295;-79
2022/02/01 11:17:26;;;;;;;4.97;1.67;;;20.90;99.90;;;;;;4158859;28;20216;-78
2022/02/01 11:19:28;;;;;;;2.58;1.60;;;20.90;99.90;;;;;;4159198;28;20551;-77
2022/02/01 11:24:20;;;;;;;5.05;1.90;;;20.70;99.90;;;;;;4158525;28;20270;-76
2022/02/01 11:26:28;;;;;;;10.18;2.10;;;20.80;99.90;;;;;;4162776;28;20685;-77
2022/02/01 11:28:40;;;;;;;9.15;2.30;;;20.80;99.90;;;;;;4161465;28;20282;-77
2022/02/01 11:30:45;;;;;;;6.28;2.15;;;20.80;99.90;;;;;;4161122;28;21017;-77
2022/02/01 11:32:52;;;;;;;5.18;1.90;;;20.80;99.90;;;;;;4161476;28;20273;-77
2022/02/01 11:35:02;;;;;;;4.07;1.73;;;20.80;99.90;;;;;;4157146;28;20300;-77
2022/02/01 11:37:10;;;;;;;5.32;1.90;;;20.80;99.90;;;;;;4163141;28;20287;-78
2022/02/01 11:39:17;;;;;;;3.20;1.77;;;20.80;99.90;;;;;;4163109;28;20220;-77
2022/02/01 11:41:31;;;;;;;3.80;1.90;;;20.80;99.90;;;;;;4162811;28;20267;-77
2022/02/01 11:43:35;;;;;;;5.47;2.03;;;20.80;99.90;;;;;;4158114;28;20636;-78
2022/02/01 11:45:40;;;;;;;4.25;1.98;;;20.80;99.90;;;;;;4159723;28;20271;-77
2022/02/01 11:47:43;;;;;;;2.33;1.50;;;20.90;99.90;;;;;;4152788;28;20229;-77